sensor_id;sensor_type;location;lat;lon;timestamp;temperature;humidity
36374;DHT22;22399;51.346;12.372;2024-02-23T00:00:02;11.70;99.90
36374;DHT22;22399;51.346;12.372;2024-02-23T00:02:32;11.70;99.90
36374;DHT22;22399;51.346;12.372;2024-02-23T00:05:01;11.70;99.90
36374;DHT22;22399;51.346;12.372;2024-02-23T00:07:30;11.80;99.90
36374;DHT22;22399;51.346;12.372;2024-02-23T00:09:59;11.80;99.90
36374;DHT22;22399;51.346;12.372;2024-02-23T00:12:27;11.80;99.90
36374;DHT22;22399;51.346;12.372;2024-02-23T00:14:55;11.80;99.90
36374;DHT22;22399;51.346;12.372;2024-02-23T00:17:24;11.90;99.90
36374;DHT22;22399;51.346;12.372;2024-02-23T00:19:52;11.90;99.90
36374;DHT22;22399;51.346;12.372;2024-02-23T00:22:21;11.90;99.90
36374;DHT22;22399;51.346;12.372;2024-02-23T00:24:50;12.00;99.90
36374;DHT22;22399;51.346;12.372;2024-02-23T00:27:18;12.00;99.90
36374;DHT22;22399;51.346;12.372;2024-02-23T00:29:46;12.00;99.90
36374;DHT22;22399;51.346;12.372;2024-02-23T00:32:14;12.00;99.90
36374;DHT22;22399;51.346;12.372;2024-02-23T00:34:43;12.00;99.90
36374;DHT22;22399;51.346;12.372;2024-02-23T00:37:11;11.90;99.90
36374;DHT22;22399;51.346;12.372;2024-02-23T00:39:40;11.90;99.90
36374;DHT22;22399;51.346;12.372;2024-02-23T00:42:10;11.90;99.90
36374;DHT22;22399;51.346;12.372;2024-02-23T00:44:38;11.80;99.90
36374;DHT22;22399;51.346;12.372;2024-02-23T00:47:06;11.70;99.90
36374;DHT22;22399;51.346;12.372;2024-02-23T00:49:36;11.60;99.90
36374;DHT22;22399;51.346;12.372;2024-02-23T00:52:05;11.60;99.90
36374;DHT22;22399;51.346;12.372;2024-02-23T00:54:33;11.50;99.90
36374;DHT22;22399;51.346;12.372;2024-02-23T00:57:01;11.50;99.90
36374;DHT22;22399;51.346;12.372;2024-02-23T00:59:31;11.50;99.90
36374;DHT22;22399;51.346;12.372;2024-02-23T01:02:00;11.50;99.90
36374;DHT22;22399;51.346;12.372;2024-02-23T01:04:28;11.50;99.90
36374;DHT22;22399;51.346;12.372;2024-02-23T01:06:58;11.60;99.90
36374;DHT22;22399;51.346;12.372;2024-02-23T01:09:26;11.50;99.90
36374;DHT22;22399;51.346;12.372;2024-02-23T01:11:55;11.50;99.90
36374;DHT22;22399;51.346;12.372;2024-02-23T01:14:23;11.50;99.90
36374;DHT22;22399;51.346;12.372;2024-02-23T01:16:53;11.50;99.90
36374;DHT22;22399;51.346;12.372;2024-02-23T01:19:21;11.50;99.90
36374;DHT22;22399;51.346;12.372;2024-02-23T01:21:50;11.50;99.90
36374;DHT22;22399;51.346;12.372;2024-02-23T01:24:26;11.50;99.90
36374;DHT22;22399;51.346;12.372;2024-02-23T01:26:56;11.50;99.90
36374;DHT22;22399;51.346;12.372;2024-02-23T01:29:26;11.50;99.90
36374;DHT22;22399;51.346;12.372;2024-02-23T01:31:56;11.60;99.90
36374;DHT22;22399;51.346;12.372;2024-02-23T01:34:26;11.50;99.90
36374;DHT22;22399;51.346;12.372;2024-02-23T01:36:54;11.40;99.90
36374;DHT22;22399;51.346;12.372;2024-02-23T01:39:22;11.40;99.90
36374;DHT22;22399;51.346;12.372;2024-02-23T01:41:51;11.30;99.90
36374;DHT22;22399;51.346;12.372;2024-02-23T01:44:19;11.20;99.90
36374;DHT22;22399;51.346;12.372;2024-02-23T01:46:48;11.10;99.90
36374;DHT22;22399;51.346;12.372;2024-02-23T01:49:20;11.10;99.90
36374;DHT22;22399;51.346;12.372;2024-02-23T01:51:50;11.00;99.90
36374;DHT22;22399;51.346;12.372;2024-02-23T01:54:18;11.00;99.90
36374;DHT22;22399;51.346;12.372;2024-02-23T01:56:46;10.90;99.90
36374;DHT22;22399;51.346;12.372;2024-02-23T01:59:15;10.80;99.90
36374;DHT22;22399;51.346;12.372;2024-02-23T02:01:44;10.80;99.90
36374;DHT22;22399;51.346;12.372;2024-02-23T02:04:12;10.70;99.90
36374;DHT22;22399;51.346;12.372;2024-02-23T02:06:44;10.60;99.90
36374;DHT22;22399;51.346;12.372;2024-02-23T02:09:13;10.60;99.90
36374;DHT22;22399;51.346;12.372;2024-02-23T02:11:46;10.60;99.90
36374;DHT22;22399;51.346;12.372;2024-02-23T02:14:15;10.70;99.90
36374;DHT22;22399;51.346;12.372;2024-02-23T02:16:44;10.60;99.90
36374;DHT22;22399;51.346;12.372;2024-02-23T02:19:13;10.50;99.90
36374;DHT22;22399;51.346;12.372;2024-02-23T02:21:43;10.50;99.90
36374;DHT22;22399;51.346;12.372;2024-02-23T02:24:12;10.50;99.90
36374;DHT22;22399;51.346;12.372;2024-02-23T02:26:41;10.50;99.90
36374;DHT22;22399;51.346;12.372;2024-02-23T02:29:13;10.40;99.90
36374;DHT22;22399;51.346;12.372;2024-02-23T02:31:42;10.20;99.90
36374;DHT22;22399;51.346;12.372;2024-02-23T02:34:10;10.10;99.90
36374;DHT22;22399;51.346;12.372;2024-02-23T02:36:40;9.90;99.90
36374;DHT22;22399;51.346;12.372;2024-02-23T02:39:09;9.80;99.90
36374;DHT22;22399;51.346;12.372;2024-02-23T02:41:38;9.70;99.90
36374;DHT22;22399;51.346;12.372;2024-02-23T02:44:06;9.70;99.90
36374;DHT22;22399;51.346;12.372;2024-02-23T02:46:36;9.70;99.90
36374;DHT22;22399;51.346;12.372;2024-02-23T02:49:04;9.70;99.90
36374;DHT22;22399;51.346;12.372;2024-02-23T02:51:33;9.70;99.90
36374;DHT22;22399;51.346;12.372;2024-02-23T02:54:02;9.70;99.90
36374;DHT22;22399;51.346;12.372;2024-02-23T02:56:32;9.60;99.90
36374;DHT22;22399;51.346;12.372;2024-02-23T02:59:00;9.50;99.90
36374;DHT22;22399;51.346;12.372;2024-02-23T03:01:29;9.40;99.90
36374;DHT22;22399;51.346;12.372;2024-02-23T03:03:57;9.30;99.90
36374;DHT22;22399;51.346;12.372;2024-02-23T03:06:26;9.40;99.90
36374;DHT22;22399;51.346;12.372;2024-02-23T03:08:54;9.40;99.90
36374;DHT22;22399;51.346;12.372;2024-02-23T03:11:22;9.60;99.90
36374;DHT22;22399;51.346;12.372;2024-02-23T03:13:52;9.70;99.90
36374;DHT22;22399;51.346;12.372;2024-02-23T03:16:20;9.70;99.90
36374;DHT22;22399;51.346;12.372;2024-02-23T03:18:50;9.70;99.90
36374;DHT22;22399;51.346;12.372;2024-02-23T03:21:18;9.80;99.90
36374;DHT22;22399;51.346;12.372;2024-02-23T03:23:47;9.70;99.90
36374;DHT22;22399;51.346;12.372;2024-02-23T03:26:15;9.70;99.90
36374;DHT22;22399;51.346;12.372;2024-02-23T03:28:44;9.60;99.90
36374;DHT22;22399;51.346;12.372;2024-02-23T03:31:13;9.60;99.90
36374;DHT22;22399;51.346;12.372;2024-02-23T03:33:42;9.50;99.90
36374;DHT22;22399;51.346;12.372;2024-02-23T03:36:10;9.30;99.90
36374;DHT22;22399;51.346;12.372;2024-02-23T03:38:39;9.10;99.90
36374;DHT22;22399;51.346;12.372;2024-02-23T03:41:08;8.90;99.90
36374;DHT22;22399;51.346;12.372;2024-02-23T03:43:36;8.80;99.90
36374;DHT22;22399;51.346;12.372;2024-02-23T03:46:06;8.70;99.90
36374;DHT22;22399;51.346;12.372;2024-02-23T03:48:36;8.50;99.90
36374;DHT22;22399;51.346;12.372;2024-02-23T03:51:05;8.40;99.90
36374;DHT22;22399;51.346;12.372;2024-02-23T03:53:34;8.30;99.90
36374;DHT22;22399;51.346;12.372;2024-02-23T03:56:03;8.20;99.90
36374;DHT22;22399;51.346;12.372;2024-02-23T03:58:31;8.10;99.90
36374;DHT22;22399;51.346;12.372;2024-02-23T04:01:00;8.00;99.90
36374;DHT22;22399;51.346;12.372;2024-02-23T04:03:28;7.90;99.90
36374;DHT22;22399;51.346;12.372;2024-02-23T04:05:58;7.90;99.90
36374;DHT22;22399;51.346;12.372;2024-02-23T04:08:26;7.90;99.90
36374;DHT22;22399;51.346;12.372;2024-02-23T04:10:54;7.80;99.90
36374;DHT22;22399;51.346;12.372;2024-02-23T04:13:23;7.80;99.90
36374;DHT22;22399;51.346;12.372;2024-02-23T04:15:51;7.70;99.90
36374;DHT22;22399;51.346;12.372;2024-02-23T04:18:19;7.70;99.90
36374;DHT22;22399;51.346;12.372;2024-02-23T04:20:47;7.70;99.90
36374;DHT22;22399;51.346;12.372;2024-02-23T04:23:17;7.70;99.90
36374;DHT22;22399;51.346;12.372;2024-02-23T04:25:45;7.70;99.90
36374;DHT22;22399;51.346;12.372;2024-02-23T04:28:14;7.60;99.90
36374;DHT22;22399;51.346;12.372;2024-02-23T04:30:42;7.60;99.90
36374;DHT22;22399;51.346;12.372;2024-02-23T04:33:10;7.60;99.90
36374;DHT22;22399;51.346;12.372;2024-02-23T04:35:38;7.50;99.90
36374;DHT22;22399;51.346;12.372;2024-02-23T04:38:07;7.50;99.90
36374;DHT22;22399;51.346;12.372;2024-02-23T04:40:37;7.50;99.90
36374;DHT22;22399;51.346;12.372;2024-02-23T04:43:05;7.40;99.90
36374;DHT22;22399;51.346;12.372;2024-02-23T04:45:33;7.40;99.90
36374;DHT22;22399;51.346;12.372;2024-02-23T04:48:01;7.30;99.90
36374;DHT22;22399;51.346;12.372;2024-02-23T04:50:30;7.30;99.90
36374;DHT22;22399;51.346;12.372;2024-02-23T04:52:58;7.40;99.90
36374;DHT22;22399;51.346;12.372;2024-02-23T04:55:27;7.40;99.90
36374;DHT22;22399;51.346;12.372;2024-02-23T04:57:56;7.30;99.90
36374;DHT22;22399;51.346;12.372;2024-02-23T05:00:25;7.30;99.90
36374;DHT22;22399;51.346;12.372;2024-02-23T05:03:00;7.30;99.90
36374;DHT22;22399;51.346;12.372;2024-02-23T05:05:30;7.30;99.90
36374;DHT22;22399;51.346;12.372;2024-02-23T05:07:59;7.30;99.90
36374;DHT22;22399;51.346;12.372;2024-02-23T05:10:27;7.30;99.90
36374;DHT22;22399;51.346;12.372;2024-02-23T05:12:57;7.30;99.90
36374;DHT22;22399;51.346;12.372;2024-02-23T05:15:25;7.40;99.90
36374;DHT22;22399;51.346;12.372;2024-02-23T05:17:54;7.40;99.90
36374;DHT22;22399;51.346;12.372;2024-02-23T05:20:22;7.40;99.90
36374;DHT22;22399;51.346;12.372;2024-02-23T05:22:51;7.40;99.90
36374;DHT22;22399;51.346;12.372;2024-02-23T05:25:19;7.40;99.90
36374;DHT22;22399;51.346;12.372;2024-02-23T05:27:47;7.40;99.90
36374;DHT22;22399;51.346;12.372;2024-02-23T05:30:17;7.40;99.90
36374;DHT22;22399;51.346;12.372;2024-02-23T05:32:45;7.50;99.90
36374;DHT22;22399;51.346;12.372;2024-02-23T05:35:14;7.40;99.90
36374;DHT22;22399;51.346;12.372;2024-02-23T05:37:43;7.40;99.90
36374;DHT22;22399;51.346;12.372;2024-02-23T05:40:11;7.40;99.90
36374;DHT22;22399;51.346;12.372;2024-02-23T05:42:39;7.40;99.90
36374;DHT22;22399;51.346;12.372;2024-02-23T05:45:08;7.40;99.90
36374;DHT22;22399;51.346;12.372;2024-02-23T05:47:39;7.40;99.90
36374;DHT22;22399;51.346;12.372;2024-02-23T05:50:12;7.40;99.90
36374;DHT22;22399;51.346;12.372;2024-02-23T05:52:40;7.40;99.30
36374;DHT22;22399;51.346;12.372;2024-02-23T05:55:09;7.40;99.40
36374;DHT22;22399;51.346;12.372;2024-02-23T05:57:37;7.30;99.50
36374;DHT22;22399;51.346;12.372;2024-02-23T06:00:07;7.30;99.80
36374;DHT22;22399;51.346;12.372;2024-02-23T06:02:39;7.30;99.80
36374;DHT22;22399;51.346;12.372;2024-02-23T06:05:08;7.20;99.90
36374;DHT22;22399;51.346;12.372;2024-02-23T06:07:36;7.20;99.90
36374;DHT22;22399;51.346;12.372;2024-02-23T06:10:05;7.10;99.90
36374;DHT22;22399;51.346;12.372;2024-02-23T06:12:34;7.10;99.90
36374;DHT22;22399;51.346;12.372;2024-02-23T06:15:02;7.00;99.90
36374;DHT22;22399;51.346;12.372;2024-02-23T06:17:31;7.00;99.90
36374;DHT22;22399;51.346;12.372;2024-02-23T06:20:01;7.00;99.90
36374;DHT22;22399;51.346;12.372;2024-02-23T06:22:33;7.00;99.90
36374;DHT22;22399;51.346;12.372;2024-02-23T06:25:02;7.00;99.90
36374;DHT22;22399;51.346;12.372;2024-02-23T06:27:30;7.00;99.90
36374;DHT22;22399;51.346;12.372;2024-02-23T06:30:00;7.00;99.90
36374;DHT22;22399;51.346;12.372;2024-02-23T06:32:28;7.00;99.90
36374;DHT22;22399;51.346;12.372;2024-02-23T06:34:56;7.00;99.90
36374;DHT22;22399;51.346;12.372;2024-02-23T06:37:28;7.00;99.90
36374;DHT22;22399;51.346;12.372;2024-02-23T06:39:56;7.10;99.90
36374;DHT22;22399;51.346;12.372;2024-02-23T06:42:25;7.10;99.90
36374;DHT22;22399;51.346;12.372;2024-02-23T06:44:53;7.10;99.90
36374;DHT22;22399;51.346;12.372;2024-02-23T06:47:22;7.10;99.90
36374;DHT22;22399;51.346;12.372;2024-02-23T06:49:51;7.10;99.90
36374;DHT22;22399;51.346;12.372;2024-02-23T06:52:19;7.00;99.90
36374;DHT22;22399;51.346;12.372;2024-02-23T06:54:49;7.10;99.90
36374;DHT22;22399;51.346;12.372;2024-02-23T06:57:17;7.00;99.90
36374;DHT22;22399;51.346;12.372;2024-02-23T06:59:45;7.10;99.90
36374;DHT22;22399;51.346;12.372;2024-02-23T07:02:13;7.10;99.90
36374;DHT22;22399;51.346;12.372;2024-02-23T07:04:43;7.10;99.90
36374;DHT22;22399;51.346;12.372;2024-02-23T07:07:11;7.10;99.90
36374;DHT22;22399;51.346;12.372;2024-02-23T07:09:39;7.10;99.90
36374;DHT22;22399;51.346;12.372;2024-02-23T07:12:09;7.10;99.90
36374;DHT22;22399;51.346;12.372;2024-02-23T07:14:40;7.10;99.90
36374;DHT22;22399;51.346;12.372;2024-02-23T07:17:08;7.10;99.90
36374;DHT22;22399;51.346;12.372;2024-02-23T07:19:37;7.20;99.90
36374;DHT22;22399;51.346;12.372;2024-02-23T07:22:05;7.20;99.90
36374;DHT22;22399;51.346;12.372;2024-02-23T07:24:33;7.30;99.90
36374;DHT22;22399;51.346;12.372;2024-02-23T07:27:03;7.30;99.90
36374;DHT22;22399;51.346;12.372;2024-02-23T07:29:33;7.30;99.90
36374;DHT22;22399;51.346;12.372;2024-02-23T07:32:01;7.30;99.90
36374;DHT22;22399;51.346;12.372;2024-02-23T07:34:31;7.30;99.90
36374;DHT22;22399;51.346;12.372;2024-02-23T07:36:59;7.30;99.90
36374;DHT22;22399;51.346;12.372;2024-02-23T07:39:27;7.30;99.90
36374;DHT22;22399;51.346;12.372;2024-02-23T07:41:56;7.30;99.90
36374;DHT22;22399;51.346;12.372;2024-02-23T07:44:24;7.30;99.90
36374;DHT22;22399;51.346;12.372;2024-02-23T07:46:54;7.40;99.90
36374;DHT22;22399;51.346;12.372;2024-02-23T07:49:22;7.40;99.90
36374;DHT22;22399;51.346;12.372;2024-02-23T07:51:51;7.40;99.90
36374;DHT22;22399;51.346;12.372;2024-02-23T07:54:19;7.40;99.90
36374;DHT22;22399;51.346;12.372;2024-02-23T07:56:47;7.40;99.90
36374;DHT22;22399;51.346;12.372;2024-02-23T07:59:15;7.40;99.90
36374;DHT22;22399;51.346;12.372;2024-02-23T08:01:43;7.40;99.90
36374;DHT22;22399;51.346;12.372;2024-02-23T08:04:13;7.40;99.70
36374;DHT22;22399;51.346;12.372;2024-02-23T08:06:41;7.40;99.70
36374;DHT22;22399;51.346;12.372;2024-02-23T08:09:10;7.40;99.60
36374;DHT22;22399;51.346;12.372;2024-02-23T08:11:38;7.40;99.30
36374;DHT22;22399;51.346;12.372;2024-02-23T08:14:07;7.50;99.20
36374;DHT22;22399;51.346;12.372;2024-02-23T08:16:35;7.50;98.80
36374;DHT22;22399;51.346;12.372;2024-02-23T08:19:03;7.60;98.90
36374;DHT22;22399;51.346;12.372;2024-02-23T08:21:33;7.60;98.80
36374;DHT22;22399;51.346;12.372;2024-02-23T08:24:01;7.70;98.60
36374;DHT22;22399;51.346;12.372;2024-02-23T08:26:30;7.80;98.60
36374;DHT22;22399;51.346;12.372;2024-02-23T08:29:00;7.80;98.30
36374;DHT22;22399;51.346;12.372;2024-02-23T08:31:29;7.90;98.40
36374;DHT22;22399;51.346;12.372;2024-02-23T08:33:57;8.00;98.00
36374;DHT22;22399;51.346;12.372;2024-02-23T08:36:26;8.10;97.90
36374;DHT22;22399;51.346;12.372;2024-02-23T08:38:56;8.20;97.80
36374;DHT22;22399;51.346;12.372;2024-02-23T08:41:25;8.30;97.70
36374;DHT22;22399;51.346;12.372;2024-02-23T08:43:53;8.40;97.50
36374;DHT22;22399;51.346;12.372;2024-02-23T08:46:23;8.50;97.60
36374;DHT22;22399;51.346;12.372;2024-02-23T08:48:51;8.50;97.20
36374;DHT22;22399;51.346;12.372;2024-02-23T08:51:19;8.50;97.40
36374;DHT22;22399;51.346;12.372;2024-02-23T08:53:48;8.50;96.90
36374;DHT22;22399;51.346;12.372;2024-02-23T08:56:17;8.50;96.90
36374;DHT22;22399;51.346;12.372;2024-02-23T08:58:45;8.60;96.90
36374;DHT22;22399;51.346;12.372;2024-02-23T09:01:14;8.70;96.90
36374;DHT22;22399;51.346;12.372;2024-02-23T09:03:42;8.70;96.60
36374;DHT22;22399;51.346;12.372;2024-02-23T09:06:10;8.70;96.50
36374;DHT22;22399;51.346;12.372;2024-02-23T09:08:38;8.90;96.60
36374;DHT22;22399;51.346;12.372;2024-02-23T09:11:08;8.90;96.20
36374;DHT22;22399;51.346;12.372;2024-02-23T09:13:39;9.00;96.20
36374;DHT22;22399;51.346;12.372;2024-02-23T09:16:09;9.10;95.90
36374;DHT22;22399;51.346;12.372;2024-02-23T09:18:37;9.20;96.10
36374;DHT22;22399;51.346;12.372;2024-02-23T09:21:05;9.30;96.00
36374;DHT22;22399;51.346;12.372;2024-02-23T09:23:33;9.30;95.90
36374;DHT22;22399;51.346;12.372;2024-02-23T09:26:08;9.40;95.80
36374;DHT22;22399;51.346;12.372;2024-02-23T09:28:36;9.30;95.60
36374;DHT22;22399;51.346;12.372;2024-02-23T09:31:05;9.30;95.40
36374;DHT22;22399;51.346;12.372;2024-02-23T09:33:34;9.20;95.10
36374;DHT22;22399;51.346;12.372;2024-02-23T09:36:02;9.10;94.90
36374;DHT22;22399;51.346;12.372;2024-02-23T09:38:31;9.10;94.90
36374;DHT22;22399;51.346;12.372;2024-02-23T09:41:05;9.30;95.00
36374;DHT22;22399;51.346;12.372;2024-02-23T09:43:41;9.40;95.20
36374;DHT22;22399;51.346;12.372;2024-02-23T09:46:11;9.60;95.20
36374;DHT22;22399;51.346;12.372;2024-02-23T09:48:41;9.70;95.10
36374;DHT22;22399;51.346;12.372;2024-02-23T09:51:10;9.80;95.10
36374;DHT22;22399;51.346;12.372;2024-02-23T09:53:39;9.80;94.80
36374;DHT22;22399;51.346;12.372;2024-02-23T09:56:08;9.90;94.70
36374;DHT22;22399;51.346;12.372;2024-02-23T09:58:37;9.90;94.50
36374;DHT22;22399;51.346;12.372;2024-02-23T10:01:07;9.90;94.50
36374;DHT22;22399;51.346;12.372;2024-02-23T10:03:40;10.00;94.20
36374;DHT22;22399;51.346;12.372;2024-02-23T10:06:08;9.90;93.90
36374;DHT22;22399;51.346;12.372;2024-02-23T10:08:36;9.80;93.40
36374;DHT22;22399;51.346;12.372;2024-02-23T10:11:04;9.80;93.70
36374;DHT22;22399;51.346;12.372;2024-02-23T10:13:33;9.90;93.80
36374;DHT22;22399;51.346;12.372;2024-02-23T10:16:02;10.00;93.60
36374;DHT22;22399;51.346;12.372;2024-02-23T10:18:42;10.10;94.00
36374;DHT22;22399;51.346;12.372;2024-02-23T10:21:11;10.00;93.00
36374;DHT22;22399;51.346;12.372;2024-02-23T10:23:39;10.00;93.20
36374;DHT22;22399;51.346;12.372;2024-02-23T10:26:08;10.20;93.50
36374;DHT22;22399;51.346;12.372;2024-02-23T10:28:37;10.40;93.50
36374;DHT22;22399;51.346;12.372;2024-02-23T10:31:06;10.50;93.20
36374;DHT22;22399;51.346;12.372;2024-02-23T10:33:40;10.50;93.10
36374;DHT22;22399;51.346;12.372;2024-02-23T10:36:11;10.40;92.90
36374;DHT22;22399;51.346;12.372;2024-02-23T10:38:40;10.40;93.00
36374;DHT22;22399;51.346;12.372;2024-02-23T10:41:13;10.30;92.60
36374;DHT22;22399;51.346;12.372;2024-02-23T10:43:44;10.20;92.80
36374;DHT22;22399;51.346;12.372;2024-02-23T10:46:15;10.30;92.70
36374;DHT22;22399;51.346;12.372;2024-02-23T10:48:44;10.10;92.20
36374;DHT22;22399;51.346;12.372;2024-02-23T10:51:14;10.00;91.90
36374;DHT22;22399;51.346;12.372;2024-02-23T10:53:49;10.00;92.50
36374;DHT22;22399;51.346;12.372;2024-02-23T10:56:17;9.90;92.00
36374;DHT22;22399;51.346;12.372;2024-02-23T10:58:46;10.00;92.20
36374;DHT22;22399;51.346;12.372;2024-02-23T11:01:15;10.10;92.20
36374;DHT22;22399;51.346;12.372;2024-02-23T11:03:46;10.10;91.80
36374;DHT22;22399;51.346;12.372;2024-02-23T11:06:19;10.10;91.80
36374;DHT22;22399;51.346;12.372;2024-02-23T11:08:49;9.90;91.30
36374;DHT22;22399;51.346;12.372;2024-02-23T11:11:20;9.80;91.30
36374;DHT22;22399;51.346;12.372;2024-02-23T11:13:48;9.70;91.20
36374;DHT22;22399;51.346;12.372;2024-02-23T11:16:21;9.70;90.90
36374;DHT22;22399;51.346;12.372;2024-02-23T11:18:50;9.60;91.00
36374;DHT22;22399;51.346;12.372;2024-02-23T11:21:35;9.60;90.50
36374;DHT22;22399;51.346;12.372;2024-02-23T11:24:05;9.50;90.20
36374;DHT22;22399;51.346;12.372;2024-02-23T11:26:37;9.50;89.90
36374;DHT22;22399;51.346;12.372;2024-02-23T11:29:10;9.50;89.70
36374;DHT22;22399;51.346;12.372;2024-02-23T11:31:44;9.50;89.80
36374;DHT22;22399;51.346;12.372;2024-02-23T11:34:22;9.50;89.90
36374;DHT22;22399;51.346;12.372;2024-02-23T11:36:53;9.50;89.50
36374;DHT22;22399;51.346;12.372;2024-02-23T11:39:21;9.50;89.20
36374;DHT22;22399;51.346;12.372;2024-02-23T11:41:50;9.50;89.80
36374;DHT22;22399;51.346;12.372;2024-02-23T11:44:18;9.50;89.60
36374;DHT22;22399;51.346;12.372;2024-02-23T11:46:47;9.60;89.20
36374;DHT22;22399;51.346;12.372;2024-02-23T11:49:15;9.50;89.60
36374;DHT22;22399;51.346;12.372;2024-02-23T11:51:43;9.60;89.20
36374;DHT22;22399;51.346;12.372;2024-02-23T11:54:14;9.70;89.30
36374;DHT22;22399;51.346;12.372;2024-02-23T11:56:42;9.70;89.80
36374;DHT22;22399;51.346;12.372;2024-02-23T11:59:11;9.80;90.00
36374;DHT22;22399;51.346;12.372;2024-02-23T12:01:39;9.90;89.50
36374;DHT22;22399;51.346;12.372;2024-02-23T12:04:07;9.90;89.00
36374;DHT22;22399;51.346;12.372;2024-02-23T12:06:36;9.80;88.10
36374;DHT22;22399;51.346;12.372;2024-02-23T12:09:04;9.80;88.40
36374;DHT22;22399;51.346;12.372;2024-02-23T12:11:34;9.80;88.50
36374;DHT22;22399;51.346;12.372;2024-02-23T12:14:03;9.90;88.80
36374;DHT22;22399;51.346;12.372;2024-02-23T12:16:35;9.70;87.70
36374;DHT22;22399;51.346;12.372;2024-02-23T12:19:03;9.70;88.30
36374;DHT22;22399;51.346;12.372;2024-02-23T12:21:34;9.60;87.40
36374;DHT22;22399;51.346;12.372;2024-02-23T12:24:05;9.60;87.80
36374;DHT22;22399;51.346;12.372;2024-02-23T12:26:36;9.50;87.60
36374;DHT22;22399;51.346;12.372;2024-02-23T12:29:06;9.50;87.50
36374;DHT22;22399;51.346;12.372;2024-02-23T12:31:34;9.50;87.00
36374;DHT22;22399;51.346;12.372;2024-02-23T12:34:02;9.50;87.30
36374;DHT22;22399;51.346;12.372;2024-02-23T12:36:31;9.60;87.70
36374;DHT22;22399;51.346;12.372;2024-02-23T12:39:02;9.70;88.10
36374;DHT22;22399;51.346;12.372;2024-02-23T12:41:30;9.70;87.60
36374;DHT22;22399;51.346;12.372;2024-02-23T12:44:00;9.70;87.70
36374;DHT22;22399;51.346;12.372;2024-02-23T12:46:29;9.70;87.40
36374;DHT22;22399;51.346;12.372;2024-02-23T12:48:57;9.60;86.70
36374;DHT22;22399;51.346;12.372;2024-02-23T12:51:25;9.60;86.90
36374;DHT22;22399;51.346;12.372;2024-02-23T12:53:54;9.50;87.50
36374;DHT22;22399;51.346;12.372;2024-02-23T12:56:23;9.50;86.90
36374;DHT22;22399;51.346;12.372;2024-02-23T12:58:52;9.50;87.30
36374;DHT22;22399;51.346;12.372;2024-02-23T13:01:23;9.50;87.70
36374;DHT22;22399;51.346;12.372;2024-02-23T13:03:51;9.50;86.20
36374;DHT22;22399;51.346;12.372;2024-02-23T13:06:20;9.40;85.20
36374;DHT22;22399;51.346;12.372;2024-02-23T13:08:48;9.40;85.60
36374;DHT22;22399;51.346;12.372;2024-02-23T13:11:17;9.40;85.60
36374;DHT22;22399;51.346;12.372;2024-02-23T13:13:45;9.40;85.50
36374;DHT22;22399;51.346;12.372;2024-02-23T13:16:14;9.40;86.00
36374;DHT22;22399;51.346;12.372;2024-02-23T13:18:44;9.30;85.10
36374;DHT22;22399;51.346;12.372;2024-02-23T13:21:15;9.40;85.70
36374;DHT22;22399;51.346;12.372;2024-02-23T13:23:44;9.40;86.00
36374;DHT22;22399;51.346;12.372;2024-02-23T13:26:12;9.40;86.30
36374;DHT22;22399;51.346;12.372;2024-02-23T13:28:42;9.40;85.90
36374;DHT22;22399;51.346;12.372;2024-02-23T13:31:12;9.40;85.70
36374;DHT22;22399;51.346;12.372;2024-02-23T13:33:40;9.30;85.10
36374;DHT22;22399;51.346;12.372;2024-02-23T13:36:10;9.20;85.50
36374;DHT22;22399;51.346;12.372;2024-02-23T13:38:38;9.30;85.80
36374;DHT22;22399;51.346;12.372;2024-02-23T13:41:09;9.40;86.20
36374;DHT22;22399;51.346;12.372;2024-02-23T13:43:38;9.40;86.10
36374;DHT22;22399;51.346;12.372;2024-02-23T13:46:07;9.30;86.40
36374;DHT22;22399;51.346;12.372;2024-02-23T13:48:36;9.40;86.90
36374;DHT22;22399;51.346;12.372;2024-02-23T13:51:05;9.40;86.90
36374;DHT22;22399;51.346;12.372;2024-02-23T13:53:35;9.40;87.10
36374;DHT22;22399;51.346;12.372;2024-02-23T13:56:05;9.40;86.80
36374;DHT22;22399;51.346;12.372;2024-02-23T13:58:33;9.40;86.90
36374;DHT22;22399;51.346;12.372;2024-02-23T14:01:01;9.40;87.10
36374;DHT22;22399;51.346;12.372;2024-02-23T14:03:33;9.30;86.80
36374;DHT22;22399;51.346;12.372;2024-02-23T14:06:02;9.20;86.40
36374;DHT22;22399;51.346;12.372;2024-02-23T14:08:30;9.20;86.50
36374;DHT22;22399;51.346;12.372;2024-02-23T14:11:02;9.10;86.10
36374;DHT22;22399;51.346;12.372;2024-02-23T14:13:32;9.10;86.60
36374;DHT22;22399;51.346;12.372;2024-02-23T14:16:03;9.10;86.50
36374;DHT22;22399;51.346;12.372;2024-02-23T14:18:32;9.10;86.30
36374;DHT22;22399;51.346;12.372;2024-02-23T14:21:04;9.10;86.70
36374;DHT22;22399;51.346;12.372;2024-02-23T14:23:33;9.10;86.50
36374;DHT22;22399;51.346;12.372;2024-02-23T14:26:03;9.10;86.30
36374;DHT22;22399;51.346;12.372;2024-02-23T14:28:31;9.10;86.70
36374;DHT22;22399;51.346;12.372;2024-02-23T14:30:59;9.10;86.80
36374;DHT22;22399;51.346;12.372;2024-02-23T14:33:28;9.00;85.60
36374;DHT22;22399;51.346;12.372;2024-02-23T14:35:59;9.00;85.50
36374;DHT22;22399;51.346;12.372;2024-02-23T14:38:27;8.90;85.90
36374;DHT22;22399;51.346;12.372;2024-02-23T14:40:56;8.90;86.10
36374;DHT22;22399;51.346;12.372;2024-02-23T14:43:25;8.90;86.30
36374;DHT22;22399;51.346;12.372;2024-02-23T14:45:54;8.90;86.50
36374;DHT22;22399;51.346;12.372;2024-02-23T14:48:22;8.90;86.50
36374;DHT22;22399;51.346;12.372;2024-02-23T14:50:50;8.90;86.80
36374;DHT22;22399;51.346;12.372;2024-02-23T14:53:19;8.90;86.80
36374;DHT22;22399;51.346;12.372;2024-02-23T14:55:48;8.90;86.60
36374;DHT22;22399;51.346;12.372;2024-02-23T14:58:16;8.90;86.90
36374;DHT22;22399;51.346;12.372;2024-02-23T15:00:46;8.90;86.80
36374;DHT22;22399;51.346;12.372;2024-02-23T15:03:15;8.80;86.80
36374;DHT22;22399;51.346;12.372;2024-02-23T15:05:43;8.70;86.50
36374;DHT22;22399;51.346;12.372;2024-02-23T15:08:12;8.70;86.60
36374;DHT22;22399;51.346;12.372;2024-02-23T15:10:40;8.60;86.60
36374;DHT22;22399;51.346;12.372;2024-02-23T15:13:08;8.60;86.30
36374;DHT22;22399;51.346;12.372;2024-02-23T15:15:37;8.60;86.80
36374;DHT22;22399;51.346;12.372;2024-02-23T15:18:09;8.50;86.90
36374;DHT22;22399;51.346;12.372;2024-02-23T15:20:37;8.50;86.70
36374;DHT22;22399;51.346;12.372;2024-02-23T15:23:05;8.50;86.60
36374;DHT22;22399;51.346;12.372;2024-02-23T15:25:34;8.50;86.70
36374;DHT22;22399;51.346;12.372;2024-02-23T15:28:09;8.40;86.80
36374;DHT22;22399;51.346;12.372;2024-02-23T15:30:37;8.40;87.10
36374;DHT22;22399;51.346;12.372;2024-02-23T15:33:05;8.40;87.20
36374;DHT22;22399;51.346;12.372;2024-02-23T15:35:35;8.30;87.10
36374;DHT22;22399;51.346;12.372;2024-02-23T15:38:04;8.30;87.20